sensor_id;sensor_type;location;lat;lon;timestamp;pressure;altitude;pressure_sealevel;temperature;humidity
42725;BME280;28369;44.046;23.014;2023-05-09T00:00:13;101786.38;;;19.72;55.12
42725;BME280;28369;44.046;23.014;2023-05-09T00:02:39;101517.78;;;18.11;54.58
42725;BME280;28369;44.046;23.014;2023-05-09T00:05:05;101346.13;;;17.12;54.50
42725;BME280;28369;44.046;23.014;2023-05-09T00:07:32;101829.41;;;20.28;54.63
42725;BME280;28369;44.046;23.014;2023-05-09T00:09:59;101735.25;;;20.01;53.70
42725;BME280;28369;44.046;23.014;2023-05-09T00:12:26;101825.31;;;20.67;53.38
42725;BME280;28369;44.046;23.014;2023-05-09T00:14:51;101751.63;;;20.31;52.81
42725;BME280;28369;44.046;23.014;2023-05-09T00:17:19;101817.59;;;20.88;52.18
42725;BME280;28369;44.046;23.014;2023-05-09T00:19:47;101548.91;;;19.31;52.17
42725;BME280;28369;44.046;23.014;2023-05-09T00:22:14;101796.88;;;20.99;51.75
42725;BME280;28369;44.046;23.014;2023-05-09T00:24:40;101523.59;;;19.51;51.79
42725;BME280;28369;44.046;23.014;2023-05-09T00:27:05;101567.78;;;19.54;51.69
42725;BME280;28369;44.046;23.014;2023-05-09T00:29:31;101607.94;;;19.52;51.50
42725;BME280;28369;44.046;23.014;2023-05-09T00:31:56;101426.47;;;17.76;53.18
42725;BME280;28369;44.046;23.014;2023-05-09T00:34:21;101558.38;;;18.40;54.67
42725;BME280;28369;44.046;23.014;2023-05-09T00:36:47;101400.63;;;17.60;53.33
42725;BME280;28369;44.046;23.014;2023-05-09T00:39:14;101622.94;;;19.45;52.79
42725;BME280;28369;44.046;23.014;2023-05-09T00:41:39;101328.59;;;17.27;52.85
42725;BME280;28369;44.046;23.014;2023-05-09T00:44:04;101787.84;;;20.26;53.02
42725;BME280;28369;44.046;23.014;2023-05-09T00:46:30;101753.63;;;19.54;53.41
42725;BME280;28369;44.046;23.014;2023-05-09T00:48:56;101558.53;;;18.73;52.60
42725;BME280;28369;44.046;23.014;2023-05-09T00:51:22;101821.22;;;20.22;52.90
42725;BME280;28369;44.046;23.014;2023-05-09T00:53:48;101819.22;;;20.24;53.22
42725;BME280;28369;44.046;23.014;2023-05-09T00:56:13;101555.03;;;18.11;54.33
42725;BME280;28369;44.046;23.014;2023-05-09T00:58:40;101821.75;;;20.42;52.89
42725;BME280;28369;44.046;23.014;2023-05-09T01:01:05;101839.81;;;20.73;52.13
42725;BME280;28369;44.046;23.014;2023-05-09T01:03:32;101761.47;;;20.39;51.47
42725;BME280;28369;44.046;23.014;2023-05-09T01:06:24;101646.59;;;19.48;51.97
42725;BME280;28369;44.046;23.014;2023-05-09T01:09:00;101797.72;;;20.33;52.07
42725;BME280;28369;44.046;23.014;2023-05-09T01:11:56;101839.94;;;20.38;52.43
42725;BME280;28369;44.046;23.014;2023-05-09T01:14:36;101810.38;;;20.15;52.67
42725;BME280;28369;44.046;23.014;2023-05-09T01:22:10;101791.19;;;20.19;51.97
42725;BME280;28369;44.046;23.014;2023-05-09T01:30:25;101811.41;;;20.55;51.81
42725;BME280;28369;44.046;23.014;2023-05-09T01:32:53;101836.94;;;20.41;52.14
42725;BME280;28369;44.046;23.014;2023-05-09T01:35:24;101716.16;;;19.63;52.03
42725;BME280;28369;44.046;23.014;2023-05-09T01:37:51;101465.94;;;18.16;51.75
42725;BME280;28369;44.046;23.014;2023-05-09T01:40:19;101827.59;;;20.62;51.65
42725;BME280;28369;44.046;23.014;2023-05-09T01:42:51;101716.94;;;20.07;51.72
42725;BME280;28369;44.046;23.014;2023-05-09T01:45:21;101786.69;;;19.77;52.64
42725;BME280;28369;44.046;23.014;2023-05-09T01:47:48;101505.19;;;18.13;51.62
42725;BME280;28369;44.046;23.014;2023-05-09T01:50:17;101738.09;;;19.49;52.47
42725;BME280;28369;44.046;23.014;2023-05-09T01:52:46;101743.47;;;19.23;53.14
42725;BME280;28369;44.046;23.014;2023-05-09T01:55:14;101811.25;;;19.81;53.03
42725;BME280;28369;44.046;23.014;2023-05-09T01:57:41;101845.53;;;20.02;53.15
42725;BME280;28369;44.046;23.014;2023-05-09T02:00:08;101864.59;;;20.15;52.59
42725;BME280;28369;44.046;23.014;2023-05-09T02:02:35;101744.56;;;19.12;53.94
42725;BME280;28369;44.046;23.014;2023-05-09T02:05:01;101834.50;;;19.97;53.36
42725;BME280;28369;44.046;23.014;2023-05-09T02:07:28;101787.16;;;19.64;53.18
42725;BME280;28369;44.046;23.014;2023-05-09T02:09:54;101813.22;;;19.44;54.38
42725;BME280;28369;44.046;23.014;2023-05-09T02:12:23;101785.34;;;19.73;53.56
42725;BME280;28369;44.046;23.014;2023-05-09T02:14:49;101837.56;;;19.76;53.51
42725;BME280;28369;44.046;23.014;2023-05-09T02:17:15;101467.03;;;17.34;53.60
42725;BME280;28369;44.046;23.014;2023-05-09T02:19:42;101803.34;;;19.71;53.52
42725;BME280;28369;44.046;23.014;2023-05-09T02:22:08;101815.47;;;19.92;53.41
42725;BME280;28369;44.046;23.014;2023-05-09T02:24:35;101853.84;;;19.91;53.56
42725;BME280;28369;44.046;23.014;2023-05-09T02:27:04;101769.38;;;19.39;53.16
42725;BME280;28369;44.046;23.014;2023-05-09T02:29:34;101802.34;;;19.64;53.09
42725;BME280;28369;44.046;23.014;2023-05-09T02:32:14;101790.88;;;19.37;53.31
42725;BME280;28369;44.046;23.014;2023-05-09T02:34:41;101818.66;;;19.26;53.43
42725;BME280;28369;44.046;23.014;2023-05-09T02:37:08;101770.97;;;19.23;53.97
42725;BME280;28369;44.046;23.014;2023-05-09T02:39:34;101817.94;;;19.50;53.32
42725;BME280;28369;44.046;23.014;2023-05-09T02:42:08;101754.34;;;18.77;54.53
42725;BME280;28369;44.046;23.014;2023-05-09T02:44:35;101793.72;;;18.47;55.25
42725;BME280;28369;44.046;23.014;2023-05-09T02:47:01;101841.84;;;19.08;54.31
42725;BME280;28369;44.046;23.014;2023-05-09T02:49:27;101734.91;;;18.40;54.74
42725;BME280;28369;44.046;23.014;2023-05-09T02:51:53;101878.50;;;19.32;54.08
42725;BME280;28369;44.046;23.014;2023-05-09T02:54:18;101788.50;;;18.81;54.81
42725;BME280;28369;44.046;23.014;2023-05-09T02:56:44;101703.69;;;18.06;55.08
42725;BME280;28369;44.046;23.014;2023-05-09T02:59:09;101470.44;;;16.35;55.21
42725;BME280;28369;44.046;23.014;2023-05-09T03:01:35;101687.63;;;18.16;55.16
42725;BME280;28369;44.046;23.014;2023-05-09T03:04:00;101396.69;;;17.02;53.37
42725;BME280;28369;44.046;23.014;2023-05-09T03:06:26;101836.09;;;19.47;53.34
42725;BME280;28369;44.046;23.014;2023-05-09T03:08:52;101703.72;;;18.51;53.09
42725;BME280;28369;44.046;23.014;2023-05-09T03:11:17;101869.63;;;19.84;52.88
42725;BME280;28369;44.046;23.014;2023-05-09T03:13:43;101812.72;;;19.75;52.31
42725;BME280;28369;44.046;23.014;2023-05-09T03:16:12;101802.22;;;19.39;52.68
42725;BME280;28369;44.046;23.014;2023-05-09T03:18:38;101543.44;;;17.94;52.24
42725;BME280;28369;44.046;23.014;2023-05-09T03:21:04;101882.63;;;19.79;53.04
42725;BME280;28369;44.046;23.014;2023-05-09T03:23:29;101800.84;;;19.69;52.09
42725;BME280;28369;44.046;23.014;2023-05-09T03:25:55;101568.09;;;17.96;52.09
42725;BME280;28369;44.046;23.014;2023-05-09T03:28:20;101631.31;;;18.21;52.45
42725;BME280;28369;44.046;23.014;2023-05-09T03:30:46;101658.63;;;18.49;52.18
42725;BME280;28369;44.046;23.014;2023-05-09T03:33:11;101621.50;;;18.03;52.18
42725;BME280;28369;44.046;23.014;2023-05-09T03:35:37;101738.09;;;18.62;52.45
42725;BME280;28369;44.046;23.014;2023-05-09T03:38:02;101910.00;;;19.63;52.18
42725;BME280;28369;44.046;23.014;2023-05-09T03:40:28;101724.66;;;18.90;52.11
42725;BME280;28369;44.046;23.014;2023-05-09T03:42:53;101763.72;;;19.07;52.09
42725;BME280;28369;44.046;23.014;2023-05-09T03:45:19;101658.00;;;18.55;51.67
42725;BME280;28369;44.046;23.014;2023-05-09T03:47:44;101781.44;;;19.51;51.33
42725;BME280;28369;44.046;23.014;2023-05-09T03:50:10;101506.81;;;17.62;51.42
42725;BME280;28369;44.046;23.014;2023-05-09T03:52:35;101937.03;;;20.20;51.66
42725;BME280;28369;44.046;23.014;2023-05-09T03:55:02;101731.81;;;18.89;51.55
42725;BME280;28369;44.046;23.014;2023-05-09T03:57:27;101598.78;;;17.73;52.10
42725;BME280;28369;44.046;23.014;2023-05-09T03:59:53;101428.09;;;16.05;53.13
42725;BME280;28369;44.046;23.014;2023-05-09T04:02:18;101488.59;;;16.85;52.34
42725;BME280;28369;44.046;23.014;2023-05-09T04:04:44;101777.13;;;18.53;52.38
42725;BME280;28369;44.046;23.014;2023-05-09T04:07:11;101586.56;;;17.62;51.63
42725;BME280;28369;44.046;23.014;2023-05-09T04:09:36;101744.06;;;18.82;51.46
42725;BME280;28369;44.046;23.014;2023-05-09T04:12:02;101546.44;;;17.19;51.05
42725;BME280;28369;44.046;23.014;2023-05-09T04:14:27;101949.31;;;20.05;50.99
42725;BME280;28369;44.046;23.014;2023-05-09T04:16:53;101596.00;;;17.92;50.33
42725;BME280;28369;44.046;23.014;2023-05-09T04:19:18;101790.59;;;18.88;50.70
42725;BME280;28369;44.046;23.014;2023-05-09T04:21:44;101707.75;;;18.81;50.35
42725;BME280;28369;44.046;23.014;2023-05-09T04:24:09;101523.44;;;17.46;49.91
42725;BME280;28369;44.046;23.014;2023-05-09T04:26:35;101501.56;;;17.34;49.80
42725;BME280;28369;44.046;23.014;2023-05-09T04:29:03;101420.31;;;16.59;50.33
42725;BME280;28369;44.046;23.014;2023-05-09T04:31:28;101602.91;;;18.29;49.72
42725;BME280;28369;44.046;23.014;2023-05-09T04:33:54;101488.31;;;17.16;50.14
42725;BME280;28369;44.046;23.014;2023-05-09T04:36:20;101939.66;;;20.12;50.31
42725;BME280;28369;44.046;23.014;2023-05-09T04:38:46;101915.91;;;20.01;49.89
42725;BME280;28369;44.046;23.014;2023-05-09T04:41:11;101633.47;;;18.43;49.98
42725;BME280;28369;44.046;23.014;2023-05-09T04:43:37;101562.16;;;18.03;49.22
42725;BME280;28369;44.046;23.014;2023-05-09T04:46:03;101455.38;;;17.53;49.05
42725;BME280;28369;44.046;23.014;2023-05-09T04:48:28;101467.94;;;17.25;49.53
42725;BME280;28369;44.046;23.014;2023-05-09T04:50:54;101530.78;;;17.70;49.19
42725;BME280;28369;44.046;23.014;2023-05-09T04:53:19;101604.41;;;18.06;49.34
42725;BME280;28369;44.046;23.014;2023-05-09T04:55:45;101823.06;;;19.17;49.44
42725;BME280;28369;44.046;23.014;2023-05-09T04:58:10;101727.44;;;18.62;49.27
42725;BME280;28369;44.046;23.014;2023-05-09T05:00:35;101704.88;;;18.74;49.44
42725;BME280;28369;44.046;23.014;2023-05-09T05:03:01;101702.53;;;18.71;49.43
42725;BME280;28369;44.046;23.014;2023-05-09T05:05:27;101497.06;;;17.53;49.06
42725;BME280;28369;44.046;23.014;2023-05-09T05:07:52;101519.88;;;17.37;49.83
42725;BME280;28369;44.046;23.014;2023-05-09T05:10:18;101880.53;;;19.99;49.16
42725;BME280;28369;44.046;23.014;2023-05-09T05:12:44;101660.88;;;18.88;48.96
42725;BME280;28369;44.046;23.014;2023-05-09T05:15:10;101769.84;;;18.81;50.06
42725;BME280;28369;44.046;23.014;2023-05-09T05:17:36;101786.66;;;19.00;49.72
42725;BME280;28369;44.046;23.014;2023-05-09T05:20:02;101436.38;;;16.58;50.14
42725;BME280;28369;44.046;23.014;2023-05-09T05:22:31;101502.63;;;17.05;50.23
42725;BME280;28369;44.046;23.014;2023-05-09T05:24:56;101333.81;;;15.46;50.87
42725;BME280;28369;44.046;23.014;2023-05-09T05:27:22;101802.91;;;18.35;51.36
42725;BME280;28369;44.046;23.014;2023-05-09T05:29:47;101686.88;;;18.06;50.77
42725;BME280;28369;44.046;23.014;2023-05-09T05:32:13;101578.69;;;17.24;50.33
42725;BME280;28369;44.046;23.014;2023-05-09T05:34:38;101743.59;;;18.42;50.22
42725;BME280;28369;44.046;23.014;2023-05-09T05:37:04;101773.81;;;18.77;50.24
42725;BME280;28369;44.046;23.014;2023-05-09T05:39:30;101588.19;;;17.27;51.28
42725;BME280;28369;44.046;23.014;2023-05-09T05:41:55;101577.75;;;17.43;50.01
42725;BME280;28369;44.046;23.014;2023-05-09T05:44:21;101600.53;;;18.00;49.85
42725;BME280;28369;44.046;23.014;2023-05-09T05:46:46;101781.63;;;18.79;49.47
42725;BME280;28369;44.046;23.014;2023-05-09T05:49:12;101816.34;;;19.31;49.25
42725;BME280;28369;44.046;23.014;2023-05-09T05:51:37;101707.19;;;18.07;49.95
42725;BME280;28369;44.046;23.014;2023-05-09T05:54:03;101985.31;;;20.01;49.40
42725;BME280;28369;44.046;23.014;2023-05-09T05:56:28;101830.91;;;18.93;49.45
42725;BME280;28369;44.046;23.014;2023-05-09T05:58:54;101714.31;;;18.42;49.18
42725;BME280;28369;44.046;23.014;2023-05-09T06:01:19;101527.69;;;17.39;49.30
42725;BME280;28369;44.046;23.014;2023-05-09T06:03:44;101491.50;;;17.64;48.45
42725;BME280;28369;44.046;23.014;2023-05-09T06:06:10;101779.78;;;18.53;49.22
42725;BME280;28369;44.046;23.014;2023-05-09T06:08:35;101723.63;;;19.17;48.10
42725;BME280;28369;44.046;23.014;2023-05-09T06:11:01;101931.84;;;20.27;48.17
42725;BME280;28369;44.046;23.014;2023-05-09T06:13:27;101812.63;;;19.50;48.03
42725;BME280;28369;44.046;23.014;2023-05-09T06:15:55;101934.88;;;20.92;47.05
42725;BME280;28369;44.046;23.014;2023-05-09T06:18:21;101731.44;;;19.53;47.11
42725;BME280;28369;44.046;23.014;2023-05-09T06:20:47;101846.94;;;20.31;46.70
42725;BME280;28369;44.046;23.014;2023-05-09T06:23:12;101662.63;;;18.79;47.21
42725;BME280;28369;44.046;23.014;2023-05-09T06:25:38;101536.56;;;17.66;47.46
42725;BME280;28369;44.046;23.014;2023-05-09T06:28:03;101587.22;;;18.00;47.32
42725;BME280;28369;44.046;23.014;2023-05-09T06:30:29;101689.78;;;18.83;47.42
42725;BME280;28369;44.046;23.014;2023-05-09T06:32:54;101869.22;;;20.05;46.59
42725;BME280;28369;44.046;23.014;2023-05-09T06:35:22;101512.31;;;17.69;46.88
42725;BME280;28369;44.046;23.014;2023-05-09T06:37:47;101810.28;;;19.56;46.73
42725;BME280;28369;44.046;23.014;2023-05-09T06:40:13;101636.00;;;18.27;46.95
42725;BME280;28369;44.046;23.014;2023-05-09T06:42:38;101495.28;;;17.79;47.10
42725;BME280;28369;44.046;23.014;2023-05-09T06:45:04;101677.41;;;18.74;47.26
42725;BME280;28369;44.046;23.014;2023-05-09T06:47:30;102020.00;;;20.70;47.45
42725;BME280;28369;44.046;23.014;2023-05-09T06:49:55;101820.16;;;19.03;48.23
42725;BME280;28369;44.046;23.014;2023-05-09T06:52:21;101462.91;;;16.58;48.87
42725;BME280;28369;44.046;23.014;2023-05-09T06:54:46;101817.56;;;18.93;48.59
42725;BME280;28369;44.046;23.014;2023-05-09T06:57:12;101828.06;;;19.12;47.89
42725;BME280;28369;44.046;23.014;2023-05-09T06:59:37;101753.78;;;18.73;48.58
42725;BME280;28369;44.046;23.014;2023-05-09T07:02:03;101805.72;;;18.87;48.92
42725;BME280;28369;44.046;23.014;2023-05-09T07:04:28;101516.78;;;16.68;49.36
42725;BME280;28369;44.046;23.014;2023-05-09T07:06:54;101541.34;;;17.26;48.74
42725;BME280;28369;44.046;23.014;2023-05-09T07:09:19;101584.88;;;17.97;48.18
42725;BME280;28369;44.046;23.014;2023-05-09T07:11:45;101851.84;;;19.32;47.99
42725;BME280;28369;44.046;23.014;2023-05-09T07:14:11;101481.13;;;16.99;48.49
42725;BME280;28369;44.046;23.014;2023-05-09T07:16:36;101826.13;;;19.23;48.53
42725;BME280;28369;44.046;23.014;2023-05-09T07:19:02;101905.97;;;19.59;48.83
42725;BME280;28369;44.046;23.014;2023-05-09T07:21:27;101966.69;;;20.17;48.17
42725;BME280;28369;44.046;23.014;2023-05-09T07:23:53;101642.28;;;18.00;48.05
42725;BME280;28369;44.046;23.014;2023-05-09T07:26:18;101511.34;;;16.98;48.53
42725;BME280;28369;44.046;23.014;2023-05-09T07:28:45;101605.59;;;17.57;48.63
42725;BME280;28369;44.046;23.014;2023-05-09T07:31:10;101641.63;;;17.70;48.44
42725;BME280;28369;44.046;23.014;2023-05-09T07:33:36;101534.06;;;17.28;47.97
42725;BME280;28369;44.046;23.014;2023-05-09T07:36:01;101799.09;;;18.91;47.97
42725;BME280;28369;44.046;23.014;2023-05-09T07:38:27;101785.47;;;18.40;49.42
42725;BME280;28369;44.046;23.014;2023-05-09T07:40:52;101535.06;;;16.71;49.55
42725;BME280;28369;44.046;23.014;2023-05-09T07:43:18;101867.84;;;19.32;49.05
42725;BME280;28369;44.046;23.014;2023-05-09T07:45:44;101836.66;;;19.32;48.13
42725;BME280;28369;44.046;23.014;2023-05-09T07:48:10;101746.13;;;18.70;47.74
42725;BME280;28369;44.046;23.014;2023-05-09T07:50:36;101755.84;;;18.79;48.10
42725;BME280;28369;44.046;23.014;2023-05-09T07:53:02;101522.22;;;17.22;47.87
42725;BME280;28369;44.046;23.014;2023-05-09T07:55:27;101817.22;;;18.70;48.77
42725;BME280;28369;44.046;23.014;2023-05-09T07:57:53;101523.13;;;16.57;49.29
42725;BME280;28369;44.046;23.014;2023-05-09T08:00:19;101833.47;;;18.85;49.17
42725;BME280;28369;44.046;23.014;2023-05-09T08:02:51;101527.88;;;16.91;48.10
42725;BME280;28369;44.046;23.014;2023-05-09T08:05:17;101792.59;;;19.20;48.44
42725;BME280;28369;44.046;23.014;2023-05-09T08:07:43;101852.53;;;19.16;47.93
42725;BME280;28369;44.046;23.014;2023-05-09T08:10:08;101591.25;;;17.86;47.70
42725;BME280;28369;44.046;23.014;2023-05-09T08:12:34;101571.19;;;17.56;47.34
42725;BME280;28369;44.046;23.014;2023-05-09T08:15:00;101697.84;;;18.47;47.59
42725;BME280;28369;44.046;23.014;2023-05-09T08:17:25;101488.97;;;17.18;47.72
42725;BME280;28369;44.046;23.014;2023-05-09T08:19:51;101724.28;;;19.11;47.02
42725;BME280;28369;44.046;23.014;2023-05-09T08:22:17;101605.41;;;18.31;46.78
42725;BME280;28369;44.046;23.014;2023-05-09T08:24:43;101582.94;;;18.07;48.03
42725;BME280;28369;44.046;23.014;2023-05-09T08:27:10;101554.94;;;17.95;47.22
42725;BME280;28369;44.046;23.014;2023-05-09T08:29:41;101882.88;;;19.94;46.00
42725;BME280;28369;44.046;23.014;2023-05-09T08:32:07;101873.09;;;20.11;45.92
42725;BME280;28369;44.046;23.014;2023-05-09T08:34:32;101864.06;;;19.77;45.74
42725;BME280;28369;44.046;23.014;2023-05-09T08:37:02;101668.03;;;18.88;46.31
42725;BME280;28369;44.046;23.014;2023-05-09T08:39:31;101543.06;;;18.42;45.72
42725;BME280;28369;44.046;23.014;2023-05-09T08:42:00;101578.41;;;18.18;46.42
42725;BME280;28369;44.046;23.014;2023-05-09T08:44:27;101868.66;;;19.59;48.20
42725;BME280;28369;44.046;23.014;2023-05-09T08:46:57;101510.56;;;17.77;47.92
42725;BME280;28369;44.046;23.014;2023-05-09T08:49:23;101697.44;;;18.86;47.72
42725;BME280;28369;44.046;23.014;2023-05-09T08:51:49;101591.91;;;18.51;47.38
42725;BME280;28369;44.046;23.014;2023-05-09T08:54:15;101871.69;;;20.49;46.54
42725;BME280;28369;44.046;23.014;2023-05-09T08:56:41;101672.91;;;19.43;46.44
42725;BME280;28369;44.046;23.014;2023-05-09T08:59:07;101533.25;;;18.08;46.89
42725;BME280;28369;44.046;23.014;2023-05-09T09:01:33;101745.34;;;19.65;47.10
42725;BME280;28369;44.046;23.014;2023-05-09T09:04:04;101732.44;;;19.60;47.00
42725;BME280;28369;44.046;23.014;2023-05-09T09:06:35;101698.81;;;19.76;46.95
42725;BME280;28369;44.046;23.014;2023-05-09T09:09:01;101555.09;;;18.80;46.43
42725;BME280;28369;44.046;23.014;2023-05-09T09:11:30;101764.53;;;19.77;46.48
42725;BME280;28369;44.046;23.014;2023-05-09T09:14:00;101756.47;;;19.26;46.89
42725;BME280;28369;44.046;23.014;2023-05-09T09:16:27;101835.00;;;20.00;47.37
42725;BME280;28369;44.046;23.014;2023-05-09T09:18:54;101758.38;;;19.76;46.76
42725;BME280;28369;44.046;23.014;2023-05-09T09:21:20;101692.63;;;19.50;46.49
42725;BME280;28369;44.046;23.014;2023-05-09T09:23:49;101640.53;;;18.87;46.60
42725;BME280;28369;44.046;23.014;2023-05-09T09:26:16;101524.41;;;17.63;47.29
42725;BME280;28369;44.046;23.014;2023-05-09T09:28:41;101541.91;;;18.36;46.56
42725;BME280;28369;44.046;23.014;2023-05-09T09:31:24;101672.84;;;19.27;45.97
42725;BME280;28369;44.046;23.014;2023-05-09T09:33:50;101802.66;;;19.61;46.21
42725;BME280;28369;44.046;23.014;2023-05-09T09:36:25;101735.75;;;19.46;45.92
42725;BME280;28369;44.046;23.014;2023-05-09T09:38:57;101904.75;;;20.57;45.79
42725;BME280;28369;44.046;23.014;2023-05-09T09:43:56;101964.09;;;20.93;45.71
42725;BME280;28369;44.046;23.014;2023-05-09T09:46:21;101943.66;;;20.59;45.93
42725;BME280;28369;44.046;23.014;2023-05-09T09:48:47;101841.22;;;20.17;45.32
42725;BME280;28369;44.046;23.014;2023-05-09T09:51:20;101534.56;;;18.04;45.36
42725;BME280;28369;44.046;23.014;2023-05-09T09:53:47;101728.19;;;18.72;45.66
42725;BME280;28369;44.046;23.014;2023-05-09T09:56:12;101600.22;;;18.56;45.24
42725;BME280;28369;44.046;23.014;2023-05-09T09:58:38;101819.03;;;19.74;45.73
42725;BME280;28369;44.046;23.014;2023-05-09T10:03:38;101839.97;;;20.46;45.69
42725;BME280;28369;44.046;23.014;2023-05-09T10:06:04;101835.38;;;20.14;45.52
42725;BME280;28369;44.046;23.014;2023-05-09T10:08:29;101593.09;;;18.30;45.38
42725;BME280;28369;44.046;23.014;2023-05-09T10:10:55;101604.63;;;18.39;45.57
42725;BME280;28369;44.046;23.014;2023-05-09T10:13:23;101715.56;;;19.35;45.74
42725;BME280;28369;44.046;23.014;2023-05-09T10:15:50;101552.13;;;17.78;46.25
42725;BME280;28369;44.046;23.014;2023-05-09T10:18:16;101524.00;;;17.94;46.05
42725;BME280;28369;44.046;23.014;2023-05-09T10:20:43;101613.97;;;18.77;45.35
42725;BME280;28369;44.046;23.014;2023-05-09T10:23:11;101850.28;;;19.82;46.11
42725;BME280;28369;44.046;23.014;2023-05-09T10:25:57;101500.59;;;18.24;45.81
42725;BME280;28369;44.046;23.014;2023-05-09T10:28:27;101735.88;;;19.36;47.05
42725;BME280;28369;44.046;23.014;2023-05-09T10:31:09;101955.56;;;21.47;45.13
42725;BME280;28369;44.046;23.014;2023-05-09T10:33:45;101755.19;;;19.73;46.26
42725;BME280;28369;44.046;23.014;2023-05-09T10:36:15;101532.34;;;18.60;46.04
42725;BME280;28369;44.046;23.014;2023-05-09T10:38:41;101814.25;;;20.53;46.11
42725;BME280;28369;44.046;23.014;2023-05-09T10:41:07;101645.97;;;19.71;45.68
42725;BME280;28369;44.046;23.014;2023-05-09T10:43:34;101724.78;;;19.57;46.07
42725;BME280;28369;44.046;23.014;2023-05-09T10:46:02;101637.09;;;19.03;46.08
42725;BME280;28369;44.046;23.014;2023-05-09T10:48:28;101627.94;;;19.57;45.66
42725;BME280;28369;44.046;23.014;2023-05-09T10:50:54;101807.19;;;20.11;45.59
42725;BME280;28369;44.046;23.014;2023-05-09T10:53:20;101667.25;;;19.55;45.63
42725;BME280;28369;44.046;23.014;2023-05-09T10:55:52;101993.53;;;21.67;46.03
42725;BME280;28369;44.046;23.014;2023-05-09T11:00:53;101789.53;;;20.51;44.29
42725;BME280;28369;44.046;23.014;2023-05-09T11:03:19;101512.91;;;18.68;43.98
42725;BME280;28369;44.046;23.014;2023-05-09T11:05:46;101788.66;;;19.67;45.49
42725;BME280;28369;44.046;23.014;2023-05-09T11:08:28;101988.38;;;21.16;45.33
42725;BME280;28369;44.046;23.014;2023-05-09T11:11:05;101824.03;;;20.20;45.87
42725;BME280;28369;44.046;23.014;2023-05-09T11:13:35;101658.03;;;18.90;45.38
42725;BME280;28369;44.046;23.014;2023-05-09T11:18:30;101699.69;;;19.76;44.91
42725;BME280;28369;44.046;23.014;2023-05-09T11:20:57;101651.03;;;19.91;43.38
42725;BME280;28369;44.046;23.014;2023-05-09T11:23:28;101546.44;;;19.71;43.28
42725;BME280;28369;44.046;23.014;2023-05-09T11:26:07;101925.25;;;22.27;43.18
42725;BME280;28369;44.046;23.014;2023-05-09T11:28:36;101512.56;;;19.22;43.74
42725;BME280;28369;44.046;23.014;2023-05-09T11:31:17;101928.28;;;22.33;42.87
42725;BME280;28369;44.046;23.014;2023-05-09T11:33:45;101855.84;;;21.86;42.80
42725;BME280;28369;44.046;23.014;2023-05-09T11:39:07;101921.66;;;22.12;43.33
42725;BME280;28369;44.046;23.014;2023-05-09T11:41:39;101926.28;;;22.26;42.57
42725;BME280;28369;44.046;23.014;2023-05-09T11:44:18;101924.09;;;22.22;42.75
42725;BME280;28369;44.046;23.014;2023-05-09T11:46:45;101963.13;;;22.16;42.96
42725;BME280;28369;44.046;23.014;2023-05-09T11:49:11;101878.69;;;21.97;42.35
42725;BME280;28369;44.046;23.014;2023-05-09T11:51:37;101947.38;;;22.61;42.46
42725;BME280;28369;44.046;23.014;2023-05-09T11:54:06;101968.59;;;22.94;41.26
42725;BME280;28369;44.046;23.014;2023-05-09T11:56:34;101945.88;;;23.05;42.00
42725;BME280;28369;44.046;23.014;2023-05-09T11:58:59;101908.13;;;22.91;42.15
42725;BME280;28369;44.046;23.014;2023-05-09T12:01:27;101909.13;;;22.67;42.44
42725;BME280;28369;44.046;23.014;2023-05-09T12:03:52;101876.28;;;22.10;43.51
42725;BME280;28369;44.046;23.014;2023-05-09T12:06:18;101950.22;;;23.06;43.29
42725;BME280;28369;44.046;23.014;2023-05-09T12:08:45;101924.44;;;23.43;43.01
42725;BME280;28369;44.046;23.014;2023-05-09T12:11:11;101943.47;;;23.18;41.96
42725;BME280;28369;44.046;23.014;2023-05-09T12:13:48;101899.63;;;23.26;42.83
42725;BME280;28369;44.046;23.014;2023-05-09T12:16:16;101890.84;;;23.62;41.92
42725;BME280;28369;44.046;23.014;2023-05-09T12:18:50;101843.78;;;23.29;42.19
42725;BME280;28369;44.046;23.014;2023-05-09T12:21:17;101893.94;;;23.74;41.29
42725;BME280;28369;44.046;23.014;2023-05-09T12:23:44;101916.63;;;24.38;41.79
42725;BME280;28369;44.046;23.014;2023-05-09T12:26:09;101914.03;;;23.25;40.57
42725;BME280;28369;44.046;23.014;2023-05-09T12:28:35;101938.63;;;23.67;40.59
42725;BME280;28369;44.046;23.014;2023-05-09T12:31:01;101703.44;;;22.31;40.69
42725;BME280;28369;44.046;23.014;2023-05-09T12:33:28;101894.00;;;23.36;40.38
42725;BME280;28369;44.046;23.014;2023-05-09T12:36:04;101849.28;;;23.13;41.58
42725;BME280;28369;44.046;23.014;2023-05-09T12:38:30;101901.53;;;23.55;41.58
42725;BME280;28369;44.046;23.014;2023-05-09T12:41:00;101824.97;;;23.44;40.13
42725;BME280;28369;44.046;23.014;2023-05-09T12:43:28;101892.72;;;23.76;40.15
42725;BME280;28369;44.046;23.014;2023-05-09T12:45:54;101857.38;;;24.24;40.42
42725;BME280;28369;44.046;23.014;2023-05-09T12:48:21;101836.34;;;24.28;39.22
42725;BME280;28369;44.046;23.014;2023-05-09T12:50:48;101870.69;;;24.32;39.82
42725;BME280;28369;44.046;23.014;2023-05-09T12:53:22;101845.22;;;24.50;39.59
42725;BME280;28369;44.046;23.014;2023-05-09T12:55:48;101821.66;;;24.09;38.77
42725;BME280;28369;44.046;23.014;2023-05-09T12:58:14;101838.84;;;23.93;39.42
42725;BME280;28369;44.046;23.014;2023-05-09T13:00:41;101778.59;;;23.66;39.46
42725;BME280;28369;44.046;23.014;2023-05-09T13:03:19;101779.91;;;24.06;39.31